createdAt,value
2017-10-27T00:00:12.789Z,1013.19
2017-10-27T00:01:05.062Z,1013.15
2017-10-27T00:01:57.961Z,1013.18
2017-10-27T00:02:50.581Z,1013.24
2017-10-27T00:03:43.024Z,1013.25
2017-10-27T00:04:35.711Z,1013.25
2017-10-27T00:05:28.155Z,1013.24
2017-10-27T00:06:20.553Z,1013.22
2017-10-27T00:07:12.704Z,1013.27
2017-10-27T00:08:05.958Z,1013.27
2017-10-27T00:08:58.174Z,1013.25
2017-10-27T00:09:50.471Z,1013.27
2017-10-27T00:10:41.998Z,1013.24
2017-10-27T00:11:34.191Z,1013.24
2017-10-27T00:12:26.742Z,1013.23
2017-10-27T00:13:19.020Z,1013.26
2017-10-27T00:14:12.460Z,1013.3
2017-10-27T00:17:00.411Z,1013.27
2017-10-27T00:17:52.864Z,1013.25
2017-10-27T00:18:45.936Z,1013.26
2017-10-27T00:19:38.117Z,1013.23
2017-10-27T00:20:30.845Z,1013.18
2017-10-27T00:21:23.217Z,1013.22
2017-10-27T00:22:15.835Z,1013.19
2017-10-27T00:23:08.710Z,1013.24
2017-10-27T00:24:02.944Z,1013.23
2017-10-27T00:24:55.244Z,1013.21
2017-10-27T00:25:47.792Z,1013.25
2017-10-27T00:26:40.293Z,1013.22
2017-10-27T00:27:32.743Z,1013.22
2017-10-27T00:28:25.181Z,1013.25
2017-10-27T00:29:18.769Z,1013.23
2017-10-27T00:30:11.203Z,1013.24
2017-10-27T00:31:06.330Z,1013.26
2017-10-27T00:31:58.709Z,1013.28
2017-10-27T00:32:51.424Z,1013.29
2017-10-27T00:33:43.784Z,1013.29
2017-10-27T00:34:36.207Z,1013.24
2017-10-27T00:35:28.663Z,1013.33
2017-10-27T00:36:22.036Z,1013.28
2017-10-27T00:37:13.695Z,1013.28
2017-10-27T00:38:07.012Z,1013.28
2017-10-27T00:39:00.275Z,1013.26
2017-10-27T00:39:52.371Z,1013.3
2017-10-27T00:40:45.565Z,1013.32
2017-10-27T00:41:38.720Z,1013.37
2017-10-27T00:42:31.471Z,1013.37
2017-10-27T00:43:23.729Z,1013.35
2017-10-27T00:44:16.240Z,1013.37
2017-10-27T00:45:09.609Z,1013.42
2017-10-27T00:46:01.892Z,1013.43
2017-10-27T00:46:54.509Z,1013.46
2017-10-27T00:47:47.170Z,1013.5
2017-10-27T00:48:40.323Z,1013.49
2017-10-27T00:49:29.610Z,1013.45
2017-10-27T00:50:09.659Z,1013.43
2017-10-27T00:50:50.200Z,1013.33
2017-10-27T00:51:30.745Z,1013.4
2017-10-27T00:52:11.206Z,1013.39
2017-10-27T00:52:51.895Z,1013.38
2017-10-27T00:53:32.417Z,1013.39
2017-10-27T00:54:12.924Z,1013.37
2017-10-27T00:54:53.222Z,1013.36
2017-10-27T00:55:33.657Z,1013.34
2017-10-27T00:56:13.982Z,1013.35
2017-10-27T00:56:54.511Z,1013.34
2017-10-27T00:57:34.968Z,1013.36
2017-10-27T00:58:15.271Z,1013.35
2017-10-27T00:58:55.728Z,1013.32
2017-10-27T00:59:36.471Z,1013.34
2017-10-27T01:00:16.884Z,1013.22
2017-10-27T01:00:57.316Z,1013.29
2017-10-27T01:01:37.731Z,1013.27
2017-10-27T01:02:18.244Z,1013.33
2017-10-27T01:02:58.581Z,1013.32
2017-10-27T01:03:38.969Z,1013.27
2017-10-27T01:04:19.436Z,1013.23
2017-10-27T01:05:00.160Z,1013.18
2017-10-27T01:05:40.440Z,1013.18
2017-10-27T01:06:20.781Z,1013.19
2017-10-27T01:07:01.221Z,1013.21
2017-10-27T01:07:41.658Z,1013.21
2017-10-27T01:08:21.980Z,1013.25
2017-10-27T01:09:03.177Z,1013.27
2017-10-27T01:09:42.951Z,1013.3
2017-10-27T01:10:23.425Z,1013.31
2017-10-27T01:11:04.176Z,1013.3
2017-10-27T01:11:44.525Z,1013.34
2017-10-27T01:12:24.979Z,1013.33
2017-10-27T01:13:05.626Z,1013.36
2017-10-27T01:13:46.343Z,1013.37
2017-10-27T01:14:27.092Z,1013.36
2017-10-27T01:15:07.765Z,1013.37
2017-10-27T01:15:48.293Z,1013.34
2017-10-27T01:16:29.182Z,1013.36
2017-10-27T01:17:09.292Z,1013.32
2017-10-27T01:17:49.760Z,1013.35
2017-10-27T01:18:30.279Z,1013.37
2017-10-27T01:19:10.655Z,1013.38
2017-10-27T01:19:51.398Z,1013.34
2017-10-27T01:20:31.686Z,1013.29
2017-10-27T01:21:12.259Z,1013.26
2017-10-27T01:21:52.824Z,1013.27
2017-10-27T01:22:33.154Z,1013.32
2017-10-27T01:23:13.533Z,1013.28
2017-10-27T01:23:53.961Z,1013.33
2017-10-27T01:24:34.336Z,1013.29
2017-10-27T01:25:14.769Z,1013.37
2017-10-27T01:25:55.158Z,1013.33
2017-10-27T01:26:35.538Z,1013.28
2017-10-27T01:27:15.928Z,1013.31
2017-10-27T01:27:56.368Z,1013.28
2017-10-27T01:28:36.822Z,1013.26
2017-10-27T01:29:17.732Z,1013.31
2017-10-27T01:29:58.286Z,1013.28
2017-10-27T01:30:38.612Z,1013.22
2017-10-27T01:31:19.053Z,1013.24
2017-10-27T01:31:59.613Z,1013.23
2017-10-27T01:32:39.957Z,1013.24
2017-10-27T01:33:20.502Z,1013.25
2017-10-27T01:34:01.452Z,1013.17
2017-10-27T01:34:41.836Z,1013.24
2017-10-27T01:35:22.334Z,1013.21
2017-10-27T01:36:02.667Z,1013.23
2017-10-27T01:36:43.180Z,1013.23
2017-10-27T01:37:23.547Z,1013.16
2017-10-27T01:38:04.108Z,1013.1
2017-10-27T01:38:44.343Z,1013.17
2017-10-27T01:39:24.799Z,1013.16
2017-10-27T01:40:05.344Z,1013.15
2017-10-27T01:40:45.749Z,1013.17
2017-10-27T01:41:26.290Z,1013.11
2017-10-27T01:42:06.534Z,1013.16
2017-10-27T01:42:47.704Z,1013.17
2017-10-27T01:43:28.111Z,1013.15
2017-10-27T01:44:08.798Z,1013.17
2017-10-27T01:44:49.019Z,1013.12
2017-10-27T01:45:29.490Z,1013.09
2017-10-27T01:46:10.068Z,1013.05
2017-10-27T01:46:50.626Z,1013.09
2017-10-27T01:47:30.950Z,1013.11
2017-10-27T01:48:11.489Z,1013.06
2017-10-27T01:48:51.983Z,1013.07
2017-10-27T01:49:32.410Z,1013.06
2017-10-27T01:50:12.774Z,1013.05
2017-10-27T01:50:53.259Z,1012.99
2017-10-27T01:51:33.695Z,1012.98
2017-10-27T01:52:14.126Z,1012.97
2017-10-27T01:52:54.589Z,1012.93
2017-10-27T01:53:35.017Z,1013
2017-10-27T01:54:15.478Z,1012.95
2017-10-27T01:54:55.849Z,1013.01
2017-10-27T01:55:36.355Z,1013.01
2017-10-27T01:56:16.744Z,1013
2017-10-27T01:56:57.967Z,1012.98
2017-10-27T01:57:38.405Z,1012.91
2017-10-27T01:58:18.910Z,1012.85
2017-10-27T01:58:59.640Z,1012.89
2017-10-27T01:59:40.378Z,1012.84
2017-10-27T02:00:21.397Z,1012.87
2017-10-27T02:01:01.727Z,1012.85
2017-10-27T02:01:42.154Z,1012.92
2017-10-27T02:02:22.653Z,1012.88
2017-10-27T02:03:03.158Z,1012.91
2017-10-27T02:03:43.562Z,1012.9
2017-10-27T02:04:23.964Z,1012.94
2017-10-27T02:05:04.295Z,1012.94
2017-10-27T02:05:44.881Z,1012.95
2017-10-27T02:06:25.344Z,1012.92
2017-10-27T02:07:05.725Z,1012.92
2017-10-27T02:07:46.118Z,1012.95
2017-10-27T02:08:26.583Z,1012.89
2017-10-27T02:09:06.982Z,1012.88
2017-10-27T02:09:47.554Z,1012.86
2017-10-27T02:10:27.912Z,1012.92
2017-10-27T02:11:08.374Z,1012.88
2017-10-27T02:11:48.974Z,1012.99
2017-10-27T02:12:29.372Z,1012.93
2017-10-27T02:13:09.791Z,1013.03
2017-10-27T02:13:50.151Z,1013
2017-10-27T02:14:30.733Z,1013.1
2017-10-27T02:15:11.051Z,1013.14
2017-10-27T02:15:51.583Z,1013.12
2017-10-27T02:16:32.059Z,1013.14
2017-10-27T02:17:12.545Z,1013.09
2017-10-27T02:17:52.948Z,1013.08
2017-10-27T02:18:33.567Z,1013.13
2017-10-27T02:19:14.146Z,1013.15
2017-10-27T02:19:54.692Z,1013.12
2017-10-27T02:20:35.136Z,1013.13
2017-10-27T02:21:15.470Z,1013.09
2017-10-27T02:21:56.019Z,1013.1
2017-10-27T02:22:36.397Z,1013.09
2017-10-27T02:23:16.887Z,1013.04
2017-10-27T02:23:57.346Z,1013.07
2017-10-27T02:24:37.724Z,1013.04
2017-10-27T02:25:18.254Z,1013.05
2017-10-27T02:25:58.523Z,1013.05
2017-10-27T02:26:39.230Z,1013.03
2017-10-27T02:27:19.709Z,1013.08
2017-10-27T02:28:00.217Z,1013.02
2017-10-27T02:28:40.968Z,1013.03
2017-10-27T02:29:21.557Z,1013.09
2017-10-27T02:30:01.991Z,1013.08
2017-10-27T02:30:42.434Z,1013.04
2017-10-27T02:31:22.831Z,1013.06
2017-10-27T02:32:03.289Z,1013.04
2017-10-27T02:32:43.729Z,1013.04
2017-10-27T02:33:24.217Z,1013.07
2017-10-27T02:34:04.612Z,1013.01
2017-10-27T02:34:45.104Z,1012.99
2017-10-27T02:35:25.380Z,1013.03
2017-10-27T02:36:05.965Z,1013.04
2017-10-27T02:36:46.390Z,1012.99
2017-10-27T02:37:26.846Z,1013.01
2017-10-27T02:38:07.200Z,1013.04
2017-10-27T02:38:47.594Z,1013.01
2017-10-27T02:39:28.060Z,1013.01
2017-10-27T02:40:08.350Z,1013.01
2017-10-27T02:40:49.010Z,1013
2017-10-27T02:41:29.412Z,1012.96
2017-10-27T02:42:09.760Z,1012.98
2017-10-27T02:42:50.229Z,1013.03
2017-10-27T02:43:30.605Z,1013
2017-10-27T02:44:10.985Z,1013.07
2017-10-27T02:44:51.359Z,1013.03
2017-10-27T02:45:31.779Z,1013.03
2017-10-27T02:46:12.169Z,1013.05
2017-10-27T02:46:52.627Z,1013.05
2017-10-27T02:47:33.115Z,1013.07
2017-10-27T02:48:13.487Z,1013.01
2017-10-27T02:48:53.929Z,1012.98
2017-10-27T02:49:34.329Z,1013.02
2017-10-27T02:50:14.712Z,1013.02
2017-10-27T02:50:55.430Z,1012.98
2017-10-27T02:51:35.819Z,1013.01
2017-10-27T02:52:16.364Z,1013.02
2017-10-27T02:52:56.953Z,1013.03
2017-10-27T02:53:37.534Z,1013.01
2017-10-27T02:54:17.899Z,1013.06
2017-10-27T02:54:58.305Z,1013.06
2017-10-27T02:55:38.820Z,1013.09
2017-10-27T02:56:19.111Z,1013.1
2017-10-27T02:56:59.721Z,1013.06
2017-10-27T02:57:40.205Z,1013.11
2017-10-27T02:58:20.592Z,1013.1
2017-10-27T02:59:00.957Z,1013.09
2017-10-27T02:59:41.413Z,1013.02
2017-10-27T03:00:21.724Z,1013.04
2017-10-27T03:01:02.141Z,1013.11
2017-10-27T03:01:42.932Z,1013.13
2017-10-27T03:02:23.299Z,1013.08
2017-10-27T03:03:03.738Z,1013.12
2017-10-27T03:03:44.180Z,1013.12
2017-10-27T03:04:24.562Z,1013.1
2017-10-27T03:05:05.300Z,1013.12
2017-10-27T03:05:46.098Z,1013.17
2017-10-27T03:06:26.759Z,1013.17
2017-10-27T03:07:07.381Z,1013.18
2017-10-27T03:07:47.600Z,1013.19
2017-10-27T03:08:28.027Z,1013.18
2017-10-27T03:09:08.705Z,1013.18
2017-10-27T03:09:49.282Z,1013.14
2017-10-27T03:10:29.901Z,1013.13
2017-10-27T03:11:10.687Z,1013.15
2017-10-27T03:11:51.129Z,1013.13
2017-10-27T03:12:32.213Z,1013.16
2017-10-27T03:13:13.183Z,1013.17
2017-10-27T03:13:53.506Z,1013.14
2017-10-27T03:14:34.249Z,1013.17
2017-10-27T03:15:15.209Z,1013.14
2017-10-27T03:15:55.881Z,1013.16
2017-10-27T03:16:36.353Z,1013.13
2017-10-27T03:17:17.302Z,1013.23
2017-10-27T03:17:57.723Z,1013.18
2017-10-27T03:18:38.776Z,1013.27
2017-10-27T03:19:19.089Z,1013.27
2017-10-27T03:19:59.707Z,1013.35
2017-10-27T03:20:40.218Z,1013.26
2017-10-27T03:21:20.798Z,1013.31
2017-10-27T03:22:01.462Z,1013.32
2017-10-27T03:22:42.724Z,1013.31
2017-10-27T03:23:24.425Z,1013.35
2017-10-27T03:24:04.335Z,1013.28
2017-10-27T03:24:44.974Z,1013.3
2017-10-27T03:25:27.103Z,1013.28
2017-10-27T03:26:08.314Z,1013.28
2017-10-27T03:26:48.706Z,1013.31
2017-10-27T03:27:30.579Z,1013.29
2017-10-27T03:28:11.030Z,1013.3
2017-10-27T03:28:51.454Z,1013.31
2017-10-27T03:29:31.910Z,1013.35
2017-10-27T03:30:12.475Z,1013.36
2017-10-27T03:30:53.660Z,1013.32
2017-10-27T03:31:34.316Z,1013.31
2017-10-27T03:32:15.430Z,1013.32
2017-10-27T03:32:57.845Z,1013.34
2017-10-27T03:33:38.311Z,1013.29
2017-10-27T03:34:18.850Z,1013.28
2017-10-27T03:35:00.585Z,1013.3
2017-10-27T03:35:42.051Z,1013.27
2017-10-27T03:36:22.457Z,1013.32
2017-10-27T03:37:03.829Z,1013.36
2017-10-27T03:37:44.362Z,1013.32
2017-10-27T03:38:25.896Z,1013.31
2017-10-27T03:39:06.716Z,1013.33
2017-10-27T03:39:48.411Z,1013.33
2017-10-27T03:40:28.995Z,1013.35
2017-10-27T03:41:09.648Z,1013.35
2017-10-27T03:41:51.348Z,1013.34
2017-10-27T03:42:32.661Z,1013.34
2017-10-27T03:43:13.955Z,1013.33
2017-10-27T03:43:54.874Z,1013.34
2017-10-27T03:44:36.004Z,1013.36
2017-10-27T03:45:17.190Z,1013.37
2017-10-27T03:45:57.498Z,1013.35
2017-10-27T03:46:38.245Z,1013.37
2017-10-27T03:47:18.806Z,1013.38
2017-10-27T03:47:59.444Z,1013.41
2017-10-27T03:48:39.825Z,1013.38
2017-10-27T03:49:20.760Z,1013.36
2017-10-27T03:50:01.165Z,1013.34
2017-10-27T03:50:42.592Z,1013.32
2017-10-27T03:51:23.540Z,1013.31
2017-10-27T03:52:03.898Z,1013.28
2017-10-27T03:52:44.348Z,1013.32
2017-10-27T03:53:25.506Z,1013.33
2017-10-27T03:54:06.674Z,1013.34
2017-10-27T03:54:49.556Z,1013.33
2017-10-27T03:55:30.666Z,1013.37
2017-10-27T03:56:11.069Z,1013.36
2017-10-27T03:56:51.269Z,1013.44
2017-10-27T03:57:32.585Z,1013.46
2017-10-27T03:58:12.926Z,1013.45
2017-10-27T03:58:54.292Z,1013.45
2017-10-27T03:59:35.476Z,1013.4
2017-10-27T04:00:15.934Z,1013.45
2017-10-27T04:00:56.350Z,1013.4
2017-10-27T04:01:37.008Z,1013.39
2017-10-27T04:02:17.242Z,1013.37
2017-10-27T04:02:57.698Z,1013.39
2017-10-27T04:40:47.316Z,1013.55
2017-10-27T04:41:27.720Z,1013.54
2017-10-27T04:42:08.151Z,1013.55
2017-10-27T04:42:48.525Z,1013.53
2017-10-27T04:43:28.960Z,1013.63
2017-10-27T04:44:09.332Z,1013.61
2017-10-27T04:44:49.930Z,1013.66
2017-10-27T04:45:30.306Z,1013.63
2017-10-27T04:46:10.763Z,1013.63
2017-10-27T04:46:51.205Z,1013.64
2017-10-27T04:47:31.630Z,1013.56
2017-10-27T04:48:12.178Z,1013.62
2017-10-27T04:48:52.622Z,1013.68
2017-10-27T04:49:33.083Z,1013.65
2017-10-27T04:50:13.472Z,1013.69
2017-10-27T04:50:53.958Z,1013.72
2017-10-27T04:51:34.343Z,1013.71
2017-10-27T04:52:14.769Z,1013.73
2017-10-27T04:52:55.136Z,1013.69
2017-10-27T04:53:35.903Z,1013.7
2017-10-27T04:54:16.297Z,1013.69
2017-10-27T04:54:56.815Z,1013.73
2017-10-27T04:55:37.229Z,1013.74
2017-10-27T04:56:17.667Z,1013.74
2017-10-27T04:56:58.083Z,1013.77
2017-10-27T04:57:38.678Z,1013.79
2017-10-27T04:58:19.071Z,1013.71
2017-10-27T04:58:59.505Z,1013.72
2017-10-27T04:59:39.948Z,1013.73
2017-10-27T05:00:20.411Z,1013.73
2017-10-27T05:01:00.760Z,1013.71
2017-10-27T05:01:41.262Z,1013.69
2017-10-27T05:02:22.126Z,1013.68
2017-10-27T05:03:02.071Z,1013.67
2017-10-27T05:03:42.581Z,1013.66
2017-10-27T05:04:23.079Z,1013.68
2017-10-27T05:05:03.451Z,1013.72
2017-10-27T05:05:44.049Z,1013.71
2017-10-27T05:06:25.239Z,1013.72
2017-10-27T05:07:05.642Z,1013.73
2017-10-27T05:07:46.117Z,1013.65
2017-10-27T05:08:26.610Z,1013.66
2017-10-27T05:09:07.040Z,1013.69
2017-10-27T05:09:47.514Z,1013.68
2017-10-27T05:10:27.839Z,1013.72
2017-10-27T05:11:08.388Z,1013.69
2017-10-27T05:11:48.710Z,1013.71
2017-10-27T05:12:29.348Z,1013.72
2017-10-27T05:13:10.855Z,1013.7
2017-10-27T05:13:50.852Z,1013.72
2017-10-27T05:14:31.232Z,1013.73
2017-10-27T05:15:11.712Z,1013.74
2017-10-27T05:15:52.201Z,1013.72
2017-10-27T05:16:32.706Z,1013.73
2017-10-27T05:17:13.048Z,1013.77
2017-10-27T05:17:54.791Z,1013.79
2017-10-27T05:18:34.054Z,1013.8
2017-10-27T05:19:14.474Z,1013.81
2017-10-27T05:19:55.089Z,1013.84
2017-10-27T05:20:35.668Z,1013.87
2017-10-27T05:21:16.241Z,1013.87
2017-10-27T05:21:56.642Z,1013.89
2017-10-27T05:22:37.517Z,1013.95
2017-10-27T05:23:17.904Z,1013.96
2017-10-27T05:23:58.549Z,1013.98
2017-10-27T05:24:39.242Z,1013.96
2017-10-27T05:25:20.192Z,1013.95
2017-10-27T05:26:00.832Z,1013.98
2017-10-27T05:26:42.481Z,1014.01
2017-10-27T05:27:23.097Z,1013.96
2017-10-27T05:28:03.631Z,1013.98
2017-10-27T05:28:44.208Z,1014.01
2017-10-27T05:29:24.703Z,1013.98
2017-10-27T05:30:05.137Z,1013.95
2017-10-27T05:30:45.755Z,1013.9
2017-10-27T05:31:26.056Z,1013.96
2017-10-27T05:32:06.630Z,1013.96
2017-10-27T05:32:47.084Z,1013.96
2017-10-27T05:33:27.479Z,1014.01
2017-10-27T05:34:07.848Z,1014.04
2017-10-27T05:34:48.295Z,1014.06
2017-10-27T05:35:28.769Z,1014.02
2017-10-27T05:36:09.232Z,1014.11
2017-10-27T05:36:49.883Z,1014.08
2017-10-27T05:37:30.331Z,1014.07
2017-10-27T05:38:10.813Z,1014.04
2017-10-27T05:38:51.283Z,1014.07
2017-10-27T05:39:31.681Z,1014.12
2017-10-27T05:40:12.197Z,1014.11
2017-10-27T05:40:52.938Z,1014.14
2017-10-27T05:41:33.318Z,1014.12
2017-10-27T05:42:13.727Z,1014.12
2017-10-27T05:42:54.181Z,1014.12
2017-10-27T05:43:34.840Z,1014.09
2017-10-27T05:44:15.439Z,1014.15
2017-10-27T05:44:59.511Z,1014.15
2017-10-27T05:45:44.666Z,1014.11
2017-10-27T05:46:31.453Z,1014.18
2017-10-27T05:49:11.384Z,1014.21
2017-10-27T05:50:06.189Z,1014.31
2017-10-27T05:51:03.402Z,1014.24
2017-10-27T05:51:57.805Z,1014.28
2017-10-27T05:52:53.069Z,1014.37
2017-10-27T05:53:46.838Z,1014.39
2017-10-27T05:54:39.806Z,1014.42
2017-10-27T05:55:32.910Z,1014.45
2017-10-27T05:56:26.841Z,1014.46
2017-10-27T05:57:19.565Z,1014.43
2017-10-27T05:58:14.294Z,1014.46
2017-10-27T05:59:08.831Z,1014.46
2017-10-27T06:01:56.949Z,1014.51
2017-10-27T06:02:52.297Z,1014.56
2017-10-27T06:03:44.246Z,1014.48
2017-10-27T06:04:33.669Z,1014.52
2017-10-27T06:05:14.136Z,1014.52
2017-10-27T06:05:54.480Z,1014.55
2017-10-27T06:06:35.018Z,1014.5
2017-10-27T06:07:15.526Z,1014.5
2017-10-27T06:07:56.115Z,1014.56
2017-10-27T06:08:36.539Z,1014.57
2017-10-27T06:09:16.979Z,1014.54
2017-10-27T06:09:57.600Z,1014.54
2017-10-27T06:10:37.917Z,1014.58
2017-10-27T06:11:18.725Z,1014.54
2017-10-27T06:11:59.286Z,1014.54
2017-10-27T06:12:39.674Z,1014.58
2017-10-27T06:13:20.194Z,1014.64
2017-10-27T06:15:29.477Z,1014.66
2017-10-27T06:16:23.569Z,1014.66
2017-10-27T06:17:18.630Z,1014.6
2017-10-27T06:18:12.632Z,1014.67
2017-10-27T06:19:09.125Z,1014.72
2017-10-27T06:20:01.676Z,1014.65
2017-10-27T06:20:56.401Z,1014.67
2017-10-27T06:21:51.103Z,1014.68
2017-10-27T06:22:45.095Z,1014.71
2017-10-27T06:23:25.609Z,1014.68
2017-10-27T06:24:06.037Z,1014.72
2017-10-27T06:24:46.815Z,1014.7
2017-10-27T06:25:27.356Z,1014.76
2017-10-27T06:26:08.050Z,1014.75
2017-10-27T06:26:48.601Z,1014.73
2017-10-27T06:27:29.387Z,1014.77
2017-10-27T06:28:11.180Z,1014.76
2017-10-27T06:28:58.955Z,1014.78
2017-10-27T10:43:13.493Z,1018.57
2017-10-27T10:44:12.655Z,1018.53
2017-10-27T10:45:08.769Z,1018.59
2017-10-27T10:46:26.791Z,1018.68
2017-10-27T10:47:13.315Z,1018.61
2017-10-27T10:47:54.219Z,1018.62
2017-10-27T10:48:36.846Z,1018.66
2017-10-27T10:49:17.347Z,1018.65
2017-10-27T10:49:59.031Z,1018.72
2017-10-27T10:50:40.172Z,1018.67
2017-10-27T10:51:21.506Z,1018.64
2017-10-27T10:52:01.990Z,1018.67
2017-10-27T10:52:43.281Z,1018.69
2017-10-27T10:53:24.050Z,1018.69
2017-10-27T10:54:04.730Z,1018.72
2017-10-27T10:54:45.266Z,1018.68
2017-10-27T10:55:25.922Z,1018.76
2017-10-27T10:56:06.745Z,1018.76
2017-10-27T10:56:46.990Z,1018.82
2017-10-27T10:57:30.099Z,1018.78
2017-10-27T10:58:10.874Z,1018.76
2017-10-27T10:58:52.346Z,1018.79
2017-10-27T10:59:33.169Z,1018.8
2017-10-27T11:00:13.609Z,1018.78
2017-10-27T11:00:54.136Z,1018.75
2017-10-27T11:01:35.668Z,1018.81
2017-10-27T11:02:16.959Z,1018.85
2017-10-27T11:02:58.126Z,1018.85
2017-10-27T11:03:38.476Z,1018.75
2017-10-27T11:04:19.624Z,1018.74
2017-10-27T11:05:00.644Z,1018.84
2017-10-27T11:05:41.664Z,1018.78
2017-10-27T11:06:22.247Z,1018.85
2017-10-27T11:07:02.651Z,1018.85
2017-10-27T11:07:43.105Z,1018.89
2017-10-27T11:08:23.630Z,1018.79
2017-10-27T11:09:04.050Z,1018.81
2017-10-27T11:09:45.767Z,1018.73
2017-10-27T11:10:26.366Z,1018.7
2017-10-27T11:11:06.901Z,1018.74
2017-10-27T11:11:47.898Z,1018.75
2017-10-27T11:12:28.618Z,1018.71
2017-10-27T11:13:09.528Z,1018.75
2017-10-27T11:13:50.792Z,1018.69
2017-10-27T11:14:32.784Z,1018.73
2017-10-27T11:15:12.936Z,1018.7
2017-10-27T11:15:53.464Z,1018.7
2017-10-27T11:16:36.804Z,1018.79
2017-10-27T11:17:17.682Z,1018.57
2017-10-27T11:17:58.173Z,1018.81
2017-10-27T11:18:41.891Z,1018.8
2017-10-27T11:19:22.960Z,1018.83
2017-10-27T11:20:03.964Z,1018.83
2017-10-27T11:20:44.683Z,1018.85
2017-10-27T11:21:25.151Z,1018.81
2017-10-27T11:22:06.033Z,1018.8
2017-10-27T11:22:46.496Z,1018.77
2017-10-27T11:23:27.314Z,1018.72
2017-10-27T11:24:09.105Z,1018.84
2017-10-27T11:24:49.576Z,1018.82
2017-10-27T11:25:30.614Z,1018.73
2017-10-27T11:26:11.457Z,1018.81
2017-10-27T11:26:51.496Z,1018.85
2017-10-27T11:27:32.064Z,1018.88
2017-10-27T11:28:12.790Z,1018.8
2017-10-27T11:28:53.385Z,1018.78
2017-10-27T11:29:33.749Z,1018.79
2017-10-27T11:30:14.970Z,1018.75
2017-10-27T11:30:55.047Z,1018.83
2017-10-27T11:31:35.367Z,1018.81
2017-10-27T11:32:15.842Z,1018.74
2017-10-27T11:32:56.265Z,1018.75
2017-10-27T11:33:36.999Z,1018.76
2017-10-27T11:34:18.421Z,1018.79
2017-10-27T11:34:58.946Z,1018.83
2017-10-27T11:35:46.005Z,1018.71
2017-10-27T11:36:26.483Z,1018.76
2017-10-27T11:37:07.140Z,1018.75
2017-10-27T11:37:47.406Z,1018.73
2017-10-27T11:41:14.594Z,1018.78
2017-10-27T11:42:07.216Z,1018.72
2017-10-27T11:43:00.137Z,1018.74
2017-10-27T11:45:31.016Z,1018.7
2017-10-27T11:46:12.552Z,1018.71
2017-10-27T11:46:52.895Z,1018.74
2017-10-27T11:47:33.411Z,1018.7
2017-10-27T11:48:13.799Z,1018.71
2017-10-27T11:48:54.340Z,1018.7
2017-10-27T11:49:35.320Z,1018.69
2017-10-27T11:50:16.467Z,1018.68
2017-10-27T11:50:56.956Z,1018.71
2017-10-27T11:51:37.249Z,1018.68
2017-10-27T11:52:17.762Z,1018.58
2017-10-27T11:52:58.700Z,1018.64
2017-10-27T11:53:40.491Z,1018.64
2017-10-27T11:54:21.287Z,1018.65
2017-10-27T11:55:02.128Z,1018.69
2017-10-27T11:55:42.424Z,1018.68
2017-10-27T11:56:23.106Z,1018.68
2017-10-27T11:57:03.778Z,1018.67
2017-10-27T11:57:45.053Z,1018.63
2017-10-27T11:58:25.940Z,1018.66
2017-10-27T11:59:06.437Z,1018.68
2017-10-27T11:59:47.285Z,1018.66
2017-10-27T12:00:28.201Z,1018.67
2017-10-27T12:01:08.676Z,1018.7
2017-10-27T12:01:49.083Z,1018.7
2017-10-27T12:02:29.669Z,1018.69
2017-10-27T12:03:13.898Z,1018.73
2017-10-27T12:03:54.246Z,1018.7
2017-10-27T12:04:35.651Z,1018.7
2017-10-27T12:05:16.491Z,1018.7
2017-10-27T12:05:56.998Z,1018.73
2017-10-27T12:06:37.461Z,1018.73
2017-10-27T12:07:18.305Z,1018.69
2017-10-27T12:07:58.662Z,1018.73
2017-10-27T12:08:39.117Z,1018.69
2017-10-27T12:09:20.323Z,1018.77
2017-10-27T12:10:01.464Z,1018.76
2017-10-27T12:10:41.992Z,1018.74
2017-10-27T12:11:24.060Z,1018.78
2017-10-27T12:12:04.913Z,1018.7
2017-10-27T12:12:45.397Z,1018.69
2017-10-27T12:13:26.327Z,1018.69
2017-10-27T12:14:06.788Z,1018.55
2017-10-27T12:14:47.606Z,1018.8
2017-10-27T12:15:28.144Z,1018.78
2017-10-27T12:16:08.879Z,1018.73
2017-10-27T12:16:50.941Z,1018.79
2017-10-27T12:17:31.568Z,1018.75
2017-10-27T12:18:12.462Z,1018.77
2017-10-27T12:18:53.357Z,1018.78
2017-10-27T12:19:34.005Z,1018.74
2017-10-27T12:20:16.415Z,1018.81
2017-10-27T12:20:56.570Z,1018.78
2017-10-27T12:21:37.052Z,1018.74
2017-10-27T12:22:17.948Z,1018.8
2017-10-27T12:22:58.060Z,1018.77
2017-10-27T12:23:38.862Z,1018.76
2017-10-27T12:24:21.403Z,1018.82
2017-10-27T12:25:02.345Z,1018.84
2017-10-27T12:25:42.317Z,1018.79
2017-10-27T12:26:22.887Z,1018.83
2017-10-27T12:27:03.218Z,1018.81
2017-10-27T12:27:43.795Z,1018.81
2017-10-27T12:28:24.239Z,1018.8
2017-10-27T12:29:05.306Z,1018.81
2017-10-27T12:29:45.908Z,1018.82
2017-10-27T12:30:29.840Z,1018.88
2017-10-27T12:31:10.913Z,1018.93
2017-10-27T12:31:52.478Z,1018.82
2017-10-27T12:32:32.890Z,1018.81
2017-10-27T12:33:15.466Z,1018.86
2017-10-27T12:33:55.842Z,1018.83
2017-10-27T12:34:38.023Z,1018.83
2017-10-27T12:35:19.372Z,1018.87
2017-10-27T12:36:00.585Z,1018.84
2017-10-27T12:36:41.958Z,1018.8
2017-10-27T12:37:22.472Z,1018.75
2017-10-27T12:38:02.861Z,1018.73
2017-10-27T12:38:43.418Z,1018.72
2017-10-27T12:39:24.381Z,1018.76
2017-10-27T12:40:04.917Z,1018.57
2017-10-27T12:40:45.883Z,1018.68
2017-10-27T12:41:26.648Z,1018.7
2017-10-27T12:42:08.408Z,1018.69
2017-10-27T12:42:49.309Z,1018.58
2017-10-27T12:43:29.595Z,1018.74
2017-10-27T12:44:10.338Z,1018.8
2017-10-27T12:44:50.991Z,1018.8
2017-10-27T12:45:31.448Z,1018.75
2017-10-27T12:46:12.504Z,1018.77
2017-10-27T12:46:52.808Z,1018.76
2017-10-27T12:47:33.528Z,1018.74
2017-10-27T12:48:13.940Z,1018.52
2017-10-27T12:48:55.205Z,1018.75
2017-10-27T12:49:37.354Z,1018.71
2017-10-27T12:50:17.803Z,1018.72
2017-10-27T12:50:58.905Z,1018.74
2017-10-27T12:51:39.827Z,1018.73
2017-10-27T12:52:20.486Z,1018.81
2017-10-27T12:53:01.132Z,1018.79
2017-10-27T12:53:43.043Z,1018.76
2017-10-27T12:54:23.566Z,1018.76
2017-10-27T12:55:04.073Z,1018.78
2017-10-27T12:55:45.597Z,1018.76
2017-10-27T12:56:26.179Z,1018.66
2017-10-27T12:57:06.661Z,1018.82
2017-10-27T12:57:47.097Z,1018.75
2017-10-27T12:58:28.127Z,1018.86
2017-10-27T12:59:08.570Z,1018.85
2017-10-27T12:59:49.814Z,1018.85
2017-10-27T13:00:31.236Z,1018.87
2017-10-27T13:01:12.597Z,1018.87
2017-10-27T13:01:52.978Z,1018.86
2017-10-27T13:02:33.719Z,1018.84
2017-10-27T13:03:15.036Z,1018.95
2017-10-27T13:03:56.344Z,1018.9
2017-10-27T13:08:14.395Z,1018.95
2017-10-27T13:09:10.339Z,1018.97
2017-10-27T13:10:08.237Z,1019
2017-10-27T13:11:04.806Z,1018.97
2017-10-27T13:11:58.376Z,1019.02
2017-10-27T13:12:54.961Z,1018.98
2017-10-27T13:13:47.703Z,1018.98
2017-10-27T13:14:44.875Z,1019.01
2017-10-27T13:15:39.912Z,1019
2017-10-27T13:16:33.657Z,1019.04
2017-10-27T13:20:56.064Z,1018.99
2017-10-27T13:21:50.580Z,1019.04
2017-10-27T13:26:45.311Z,1018.95
2017-10-27T13:27:25.707Z,1019.06
2017-10-27T13:31:28.214Z,1019.02
2017-10-27T13:32:22.256Z,1019.05
2017-10-27T13:33:15.763Z,1019.06
2017-10-27T13:34:08.222Z,1018.95
2017-10-27T13:36:01.244Z,1019.08
2017-10-27T13:36:41.901Z,1019.01
2017-10-27T13:37:22.467Z,1019.1
2017-10-27T13:38:02.922Z,1019.12
2017-10-27T13:38:43.801Z,1019.09
2017-10-27T13:39:23.865Z,1019
2017-10-27T13:40:04.221Z,1019.03
2017-10-27T13:40:44.762Z,1019.05
2017-10-27T13:41:25.430Z,1018.97
2017-10-27T13:42:05.845Z,1019.03
2017-10-27T13:42:46.268Z,1018.97
2017-10-27T13:43:26.741Z,1019.03
2017-10-27T13:44:07.153Z,1019
2017-10-27T13:44:47.682Z,1019.02
2017-10-27T13:45:28.134Z,1019.06
2017-10-27T13:46:08.583Z,1019
2017-10-27T13:46:49.033Z,1019.03
2017-10-27T13:47:29.421Z,1018.96
2017-10-27T13:48:09.957Z,1019.04
2017-10-27T13:48:51.172Z,1019.07
2017-10-27T13:49:31.592Z,1019.02
2017-10-27T13:50:12.018Z,1019.12
2017-10-27T13:50:52.471Z,1019.11
2017-10-27T13:51:32.839Z,1019.15
2017-10-27T13:52:13.269Z,1019.16
2017-10-27T13:52:53.713Z,1019.16
2017-10-27T13:53:34.183Z,1019.18